Time;durP1;ratioP1;P1;durP2;ratioP2;P2;SDS_P1;SDS_P2;PMS_P1;PMS_P2;Temp;Humidity;BMP_temperature;BMP_pressure;BME280_temperature;BME280_humidity;BME280_pressure;Samples;Min_cycle;Max_cycle;Signal;HPM_P1;HPM_P2
2022/06/18 00:02:20;;;;;;;2.03;1.93;;;27.80;41.90;;;;;;4975075;28;20497;-87
2022/06/18 00:04:50;;;;;;;2.03;1.93;;;27.80;41.90;;;;;;4974959;28;20424;-88
2022/06/18 00:07:19;;;;;;;2.10;2.00;;;27.70;41.90;;;;;;4975054;28;20431;-87
2022/06/18 00:09:54;;;;;;;2.47;1.90;;;27.70;42.00;;;;;;4974986;28;20454;-87
2022/06/18 00:15:12;;;;;;;1.80;1.70;;;27.70;42.00;;;;;;4974995;28;20460;-88
2022/06/18 00:17:40;;;;;;;1.70;1.60;;;27.70;42.10;;;;;;4974924;28;20468;-87
2022/06/18 00:20:11;;;;;;;1.80;1.70;;;27.70;42.10;;;;;;4974639;28;20564;-87
2022/06/18 00:22:39;;;;;;;2.00;1.90;;;27.70;42.20;;;;;;4975430;28;20444;-87
2022/06/18 00:25:11;;;;;;;2.20;2.10;;;27.70;42.20;;;;;;4974661;28;20519;-87
2022/06/18 00:27:39;;;;;;;1.90;1.80;;;27.60;42.20;;;;;;4975008;28;20484;-87
2022/06/18 00:30:10;;;;;;;1.77;1.67;;;27.60;42.70;;;;;;4975736;28;20505;-87
2022/06/18 00:32:38;;;;;;;1.70;1.60;;;27.60;42.10;;;;;;4974907;28;20577;-87
2022/06/18 00:35:07;;;;;;;2.10;1.90;;;27.60;42.20;;;;;;4974936;28;20421;-87
2022/06/18 00:37:36;;;;;;;2.13;2.03;;;27.60;42.20;;;;;;4975439;28;20819;-87
2022/06/18 00:40:11;;;;;;;1.97;1.70;;;27.60;42.20;;;;;;4974650;28;20564;-87
2022/06/18 00:42:39;;;;;;;2.17;2.07;;;27.60;42.20;;;;;;4974647;28;20537;-87
2022/06/18 00:45:07;;;;;;;1.70;1.60;;;27.50;42.20;;;;;;4974448;28;20538;-87
2022/06/18 00:47:52;;;;;;;1.83;1.73;;;27.50;42.20;;;;;;4975201;28;20477;-87
2022/06/18 00:50:22;;;;;;;1.90;1.80;;;27.50;42.20;;;;;;4974350;28;20480;-88
2022/06/18 00:52:53;;;;;;;1.90;1.80;;;27.50;42.30;;;;;;4974343;28;20493;-87
2022/06/18 00:55:23;;;;;;;1.90;1.80;;;27.50;42.30;;;;;;4974440;28;20528;-87
2022/06/18 00:57:54;;;;;;;2.20;2.10;;;27.50;42.40;;;;;;4966730;28;20513;-87
2022/06/18 01:00:23;;;;;;;1.60;1.50;;;27.50;42.50;;;;;;4974200;28;20487;-87
2022/06/18 01:02:52;;;;;;;1.80;1.73;;;27.50;42.50;;;;;;4976835;28;20560;-87
2022/06/18 01:05:23;;;;;;;2.10;2.00;;;27.40;42.40;;;;;;4978053;28;20450;-87
2022/06/18 01:07:55;;;;;;;1.73;1.63;;;27.40;42.50;;;;;;4978130;28;20460;-87
2022/06/18 01:10:28;;;;;;;7.40;1.80;;;27.40;42.50;;;;;;4978039;28;20469;-88
2022/06/18 01:12:56;;;;;;;1.70;1.63;;;27.40;42.60;;;;;;4977990;28;20493;-88
2022/06/18 01:15:24;;;;;;;1.70;1.60;;;27.40;42.70;;;;;;4977920;28;20541;-87
2022/06/18 01:17:53;;;;;;;1.90;1.80;;;27.40;42.60;;;;;;4979139;28;20454;-87
2022/06/18 01:20:22;;;;;;;1.70;1.70;;;27.40;42.60;;;;;;4977273;28;20457;-87
2022/06/18 01:22:59;;;;;;;1.83;1.73;;;27.40;42.60;;;;;;4969750;28;20448;-88
2022/06/18 01:25:29;;;;;;;1.50;1.40;;;27.40;42.70;;;;;;4978217;28;20424;-87
2022/06/18 01:27:57;;;;;;;2.20;2.10;;;27.30;42.70;;;;;;4978621;28;20478;-87
2022/06/18 01:30:26;;;;;;;2.03;1.93;;;27.40;42.80;;;;;;4977978;28;20454;-87
2022/06/18 01:32:55;;;;;;;2.03;1.93;;;27.40;42.80;;;;;;4977821;28;20501;-87
2022/06/18 01:35:23;;;;;;;1.73;1.70;;;27.30;42.80;;;;;;4978943;28;20545;-87
2022/06/18 01:37:51;;;;;;;1.73;1.63;;;27.30;42.90;;;;;;4979465;28;20841;-87
2022/06/18 01:40:22;;;;;;;2.00;1.90;;;27.30;42.90;;;;;;4977145;28;20573;-87
2022/06/18 01:42:52;;;;;;;1.80;1.80;;;27.30;42.90;;;;;;4977490;28;20475;-87
2022/06/18 01:45:23;;;;;;;1.87;1.77;;;27.30;43.00;;;;;;4977154;28;20477;-88
2022/06/18 01:47:54;;;;;;;1.80;1.70;;;27.20;42.80;;;;;;4976951;28;20447;-87
2022/06/18 01:50:23;;;;;;;1.90;1.80;;;27.20;43.60;;;;;;4976928;28;20417;-87
2022/06/18 01:52:53;;;;;;;3.57;1.80;;;27.20;43.00;;;;;;4977487;28;20501;-87
2022/06/18 01:55:23;;;;;;;1.80;1.70;;;27.20;43.10;;;;;;4977422;28;20473;-87
2022/06/18 01:57:54;;;;;;;2.17;2.07;;;27.20;43.00;;;;;;4977242;28;20473;-88
2022/06/18 02:00:24;;;;;;;2.10;1.80;;;27.10;43.10;;;;;;4977223;28;20449;-87
2022/06/18 02:02:52;;;;;;;2.23;2.03;;;27.10;43.10;;;;;;4978127;28;20542;-88
2022/06/18 02:05:21;;;;;;;1.80;1.70;;;27.10;43.00;;;;;;4978216;28;20435;-87
2022/06/18 02:07:49;;;;;;;1.77;1.70;;;27.10;43.10;;;;;;4976677;28;20534;-87
2022/06/18 02:10:19;;;;;;;1.73;1.70;;;27.10;43.20;;;;;;4976567;28;20700;-87
2022/06/18 02:12:47;;;;;;;1.60;1.60;;;27.10;43.20;;;;;;4976816;28;20495;-87
2022/06/18 02:15:19;;;;;;;1.80;1.70;;;27.10;43.20;;;;;;4976136;28;20845;-88
2022/06/18 02:17:47;;;;;;;1.70;1.60;;;27.10;43.20;;;;;;4976803;28;20504;-87
2022/06/18 02:20:16;;;;;;;1.90;1.80;;;27.00;43.10;;;;;;4976397;28;20504;-88
2022/06/18 02:22:45;;;;;;;2.80;2.00;;;27.10;43.20;;;;;;4977118;28;20437;-87
2022/06/18 02:25:13;;;;;;;2.10;1.63;;;27.00;43.20;;;;;;4976246;28;20529;-87
2022/06/18 02:27:41;;;;;;;2.00;1.90;;;27.00;43.20;;;;;;4977140;28;20445;-87
2022/06/18 02:30:15;;;;;;;1.73;1.63;;;27.00;43.20;;;;;;4979142;28;20448;-87
2022/06/18 02:32:48;;;;;;;1.70;1.70;;;27.00;43.30;;;;;;4976671;28;20501;-87
2022/06/18 02:35:16;;;;;;;1.53;1.43;;;27.00;43.30;;;;;;4976350;28;20472;-87
2022/06/18 02:37:46;;;;;;;2.10;2.00;;;26.90;43.30;;;;;;4975952;28;20496;-88
2022/06/18 02:40:19;;;;;;;1.60;1.60;;;26.90;43.40;;;;;;4976127;28;20561;-88
2022/06/18 02:42:47;;;;;;;1.80;1.80;;;26.90;43.20;;;;;;4975792;28;20474;-87
2022/06/18 02:45:17;;;;;;;1.80;1.80;;;26.90;43.40;;;;;;4975888;28;20489;-87
2022/06/18 02:47:45;;;;;;;1.83;1.83;;;26.90;43.40;;;;;;4976411;28;20437;-88
2022/06/18 02:50:15;;;;;;;1.97;1.87;;;26.90;43.40;;;;;;4976425;28;20489;-88
2022/06/18 02:52:48;;;;;;;1.83;1.73;;;26.90;43.60;;;;;;4975946;28;20470;-88
2022/06/18 02:55:26;;;;;;;1.70;1.60;;;26.90;43.50;;;;;;4975864;28;20450;-87
2022/06/18 02:57:56;;;;;;;2.03;1.93;;;26.80;43.50;;;;;;4976299;28;20436;-87
2022/06/18 03:00:25;;;;;;;1.70;1.70;;;26.80;43.60;;;;;;4975635;28;20542;-88
2022/06/18 03:02:53;;;;;;;1.90;1.80;;;26.80;43.50;;;;;;4975563;28;20478;-87
2022/06/18 03:05:24;;;;;;;2.07;1.97;;;26.80;43.60;;;;;;4976107;28;20447;-87
2022/06/18 03:07:52;;;;;;;1.93;1.83;;;26.80;43.70;;;;;;4976393;28;20518;-87
2022/06/18 03:13:06;;;;;;;2.33;1.80;;;26.70;43.60;;;;;;4975608;28;20478;-87
2022/06/18 03:15:35;;;;;;;1.70;1.70;;;26.70;43.70;;;;;;4975568;28;20505;-88
2022/06/18 03:18:06;;;;;;;2.07;1.97;;;26.70;43.80;;;;;;4975435;28;20444;-88
2022/06/18 03:20:41;;;;;;;1.93;1.83;;;26.70;43.60;;;;;;4975264;28;20520;-88
2022/06/18 03:23:09;;;;;;;2.03;1.93;;;26.70;43.80;;;;;;4975412;28;20500;-87
2022/06/18 03:25:37;;;;;;;2.07;1.97;;;26.70;43.80;;;;;;4975565;28;20479;-88
2022/06/18 03:28:06;;;;;;;2.10;2.00;;;26.70;43.70;;;;;;4975442;28;20533;-89
2022/06/18 03:30:35;;;;;;;2.47;2.37;;;26.70;43.80;;;;;;4975872;28;20446;-87
2022/06/18 03:33:03;;;;;;;2.00;1.90;;;26.70;44.40;;;;;;4975533;28;20532;-87
2022/06/18 03:35:31;;;;;;;2.10;1.90;;;26.70;43.90;;;;;;4975625;28;20459;-87
2022/06/18 03:37:59;;;;;;;1.93;1.83;;;26.70;43.90;;;;;;4975401;28;20539;-88
2022/06/18 03:40:28;;;;;;;2.40;1.60;;;26.60;43.70;;;;;;4976083;28;20501;-88
2022/06/18 03:42:56;;;;;;;1.70;1.70;;;26.70;43.80;;;;;;4980341;28;20464;-87
2022/06/18 03:45:24;;;;;;;2.20;2.00;;;26.60;43.80;;;;;;4982777;28;20429;-86
2022/06/18 03:47:53;;;;;;;2.10;2.00;;;26.60;44.00;;;;;;4983296;28;20421;-86
2022/06/18 03:50:23;;;;;;;1.90;1.80;;;26.70;43.90;;;;;;4982562;28;20452;-87
2022/06/18 03:52:57;;;;;;;1.93;1.83;;;26.60;43.90;;;;;;4982670;28;20795;-89
2022/06/18 03:55:25;;;;;;;2.00;1.90;;;26.60;43.90;;;;;;4983326;28;20449;-87
2022/06/18 03:57:53;;;;;;;1.90;1.80;;;26.60;44.00;;;;;;4983318;28;20482;-87
2022/06/18 04:00:23;;;;;;;2.00;1.90;;;26.70;44.00;;;;;;4982828;28;20450;-86
2022/06/18 04:02:51;;;;;;;1.70;1.60;;;26.60;44.00;;;;;;4982549;28;20537;-87
2022/06/18 04:05:21;;;;;;;2.40;2.30;;;26.60;44.00;;;;;;4982560;28;20529;-87
2022/06/18 04:07:49;;;;;;;2.20;2.10;;;26.60;44.10;;;;;;4982786;28;20461;-87
2022/06/18 04:10:18;;;;;;;2.00;1.90;;;26.60;44.10;;;;;;4983338;28;20421;-87
2022/06/18 04:12:47;;;;;;;2.00;1.90;;;26.60;44.10;;;;;;4982408;28;20471;-87
2022/06/18 04:15:23;;;;;;;1.87;1.77;;;26.60;44.00;;;;;;4983613;28;20476;-87
2022/06/18 04:17:52;;;;;;;4.13;1.90;;;26.60;44.20;;;;;;4982550;28;20867;-87
2022/06/18 04:20:23;;;;;;;1.97;1.97;;;26.60;44.10;;;;;;4981714;28;20489;-88
2022/06/18 04:22:51;;;;;;;5.70;1.80;;;26.60;44.20;;;;;;4983417;28;20516;-87
2022/06/18 04:25:19;;;;;;;4.23;2.10;;;26.60;44.10;;;;;;4982835;28;20454;-86
2022/06/18 04:27:47;;;;;;;1.70;1.70;;;26.60;44.10;;;;;;4983011;28;20529;-86
2022/06/18 04:30:15;;;;;;;1.93;1.73;;;26.60;44.00;;;;;;4982865;28;20928;-87
2022/06/18 04:32:44;;;;;;;3.23;2.33;;;26.60;44.20;;;;;;4983132;28;20474;-86
2022/06/18 04:35:13;;;;;;;1.73;1.70;;;26.60;44.20;;;;;;4982151;28;20453;-87
2022/06/18 04:37:44;;;;;;;1.83;1.73;;;26.60;44.80;;;;;;4982906;28;20469;-88
2022/06/18 04:40:13;;;;;;;2.00;2.00;;;26.60;44.30;;;;;;4982409;28;20420;-86
2022/06/18 04:42:41;;;;;;;2.00;1.90;;;26.60;44.80;;;;;;4982574;28;20508;-87
2022/06/18 04:45:10;;;;;;;1.93;1.83;;;26.60;44.20;;;;;;4981853;28;20471;-87
2022/06/18 04:47:40;;;;;;;1.67;1.60;;;26.70;44.10;;;;;;4982292;28;20473;-86
2022/06/18 04:50:09;;;;;;;1.83;1.73;;;26.60;44.20;;;;;;4982652;28;20461;-88
2022/06/18 04:52:38;;;;;;;1.80;1.70;;;26.70;44.20;;;;;;4982698;28;20448;-86
2022/06/18 04:55:08;;;;;;;1.67;1.57;;;26.70;44.10;;;;;;4981262;28;20474;-86
2022/06/18 04:57:36;;;;;;;1.97;1.97;;;26.70;44.20;;;;;;4980421;28;20988;-85
2022/06/18 05:00:07;;;;;;;2.00;1.90;;;26.60;44.20;;;;;;4980208;28;20537;-86
2022/06/18 05:02:35;;;;;;;2.20;2.10;;;26.70;44.20;;;;;;4979538;28;20453;-87
2022/06/18 05:05:07;;;;;;;1.90;1.80;;;26.70;44.10;;;;;;4979530;28;20427;-86
2022/06/18 05:07:35;;;;;;;1.80;1.80;;;26.70;44.10;;;;;;4979478;28;20891;-86
2022/06/18 05:10:04;;;;;;;1.63;1.53;;;26.70;44.20;;;;;;4980607;28;20927;-86
2022/06/18 05:12:33;;;;;;;2.40;2.30;;;26.70;44.20;;;;;;4981264;28;20472;-86
2022/06/18 05:15:01;;;;;;;2.00;1.90;;;26.70;44.10;;;;;;4982874;28;20514;-85
2022/06/18 05:17:31;;;;;;;2.10;2.00;;;26.70;44.30;;;;;;4983396;28;20463;-85
2022/06/18 05:20:06;;;;;;;2.10;2.00;;;26.70;44.20;;;;;;4982928;28;20520;-86
2022/06/18 05:22:34;;;;;;;1.80;1.70;;;26.70;44.20;;;;;;4982681;28;20502;-86
2022/06/18 05:25:02;;;;;;;2.03;1.93;;;26.70;44.20;;;;;;4983024;28;20446;-85
2022/06/18 05:27:34;;;;;;;2.10;2.00;;;26.80;44.00;;;;;;4982961;28;20557;-85
2022/06/18 05:30:02;;;;;;;1.90;1.80;;;26.80;44.20;;;;;;4982934;28;20472;-85
2022/06/18 05:32:30;;;;;;;2.27;2.07;;;26.80;44.10;;;;;;4983197;28;20470;-83
2022/06/18 05:34:58;;;;;;;2.20;2.10;;;26.80;44.10;;;;;;4983971;28;20457;-85
2022/06/18 05:37:27;;;;;;;1.87;1.77;;;26.90;44.00;;;;;;4983263;28;20817;-86
2022/06/18 05:39:55;;;;;;;2.17;2.07;;;26.90;44.10;;;;;;4983269;28;20515;-84
2022/06/18 05:42:23;;;;;;;2.40;2.30;;;26.90;44.00;;;;;;4982039;28;20586;-86
2022/06/18 05:44:54;;;;;;;1.90;1.90;;;26.90;44.00;;;;;;4982984;28;20458;-85
2022/06/18 05:47:23;;;;;;;1.93;1.83;;;26.90;44.00;;;;;;4988059;28;20425;-86
2022/06/18 05:49:52;;;;;;;4.40;2.10;;;26.90;44.00;;;;;;4986079;28;20425;-86
2022/06/18 05:52:20;;;;;;;1.87;1.87;;;27.00;44.00;;;;;;4988270;28;20464;-85
2022/06/18 05:54:50;;;;;;;2.13;2.03;;;27.00;44.00;;;;;;4986297;28;20480;-86
2022/06/18 05:57:18;;;;;;;1.87;1.80;;;27.00;43.90;;;;;;4986581;28;20466;-86
2022/06/18 05:59:47;;;;;;;2.20;2.10;;;27.00;43.90;;;;;;4985411;28;20468;-86
2022/06/18 06:02:17;;;;;;;1.93;1.93;;;27.00;44.00;;;;;;4985092;28;20456;-87
2022/06/18 06:04:46;;;;;;;2.40;2.30;;;27.00;44.00;;;;;;4986276;28;20421;-87
2022/06/18 06:07:14;;;;;;;2.03;1.93;;;27.00;44.00;;;;;;4986027;28;20477;-86
2022/06/18 06:12:29;;;;;;;2.07;1.97;;;27.10;43.90;;;;;;4985348;28;20481;-86
2022/06/18 06:14:57;;;;;;;2.10;2.00;;;27.10;44.00;;;;;;4985803;28;20872;-86
2022/06/18 06:17:26;;;;;;;2.40;2.30;;;27.10;43.90;;;;;;4986173;28;20489;-86
2022/06/18 06:20:00;;;;;;;2.27;2.17;;;27.20;43.90;;;;;;4984855;28;20428;-87
2022/06/18 06:22:28;;;;;;;2.10;2.10;;;27.20;44.00;;;;;;4983591;28;20498;-87
2022/06/18 06:24:56;;;;;;;2.37;2.27;;;27.20;43.90;;;;;;4983458;28;20452;-86
2022/06/18 06:27:24;;;;;;;2.53;2.40;;;27.20;43.90;;;;;;4986070;28;20462;-86
2022/06/18 06:29:52;;;;;;;2.23;2.13;;;27.30;43.90;;;;;;4983956;28;20541;-86
2022/06/18 06:32:23;;;;;;;2.33;2.07;;;27.30;43.80;;;;;;4983930;28;20525;-86
2022/06/18 06:34:52;;;;;;;2.10;2.00;;;27.30;43.80;;;;;;4984285;28;20478;-87
2022/06/18 06:37:47;;;;;;;2.10;2.00;;;27.40;43.70;;;;;;4985291;28;20465;-86
2022/06/18 06:40:15;;;;;;;2.30;1.90;;;27.40;43.50;;;;;;4983130;28;20450;-86
2022/06/18 06:42:44;;;;;;;2.50;2.40;;;27.50;43.60;;;;;;4982057;28;20516;-86
2022/06/18 06:45:13;;;;;;;2.97;2.77;;;27.50;43.50;;;;;;4982389;28;20481;-86
2022/06/18 06:47:41;;;;;;;3.10;2.70;;;27.60;43.50;;;;;;4982927;28;20477;-86
2022/06/18 06:53:05;;;;;;;2.67;2.47;;;27.60;43.50;;;;;;4979911;28;20457;-85
2022/06/18 06:58:28;;;;;;;2.40;2.30;;;27.70;43.40;;;;;;4986077;28;20478;-85
2022/06/18 07:00:58;;;;;;;2.27;2.17;;;27.70;43.60;;;;;;4985349;28;20425;-86
2022/06/18 07:03:29;;;;;;;2.60;2.40;;;27.70;43.40;;;;;;4984608;28;20478;-86
2022/06/18 07:06:01;;;;;;;2.40;2.30;;;27.70;43.50;;;;;;4985106;28;20450;-87
2022/06/18 07:08:34;;;;;;;2.33;2.23;;;27.80;43.60;;;;;;4985280;28;20481;-86
2022/06/18 07:11:21;;;;;;;2.77;2.67;;;27.80;43.60;;;;;;4986304;28;20457;-86
2022/06/18 07:14:10;;;;;;;2.60;2.40;;;27.90;43.50;;;;;;4985800;28;20471;-87
2022/06/18 07:16:53;;;;;;;2.60;2.50;;;27.90;43.60;;;;;;4983539;28;20529;-86
2022/06/18 07:19:39;;;;;;;2.87;2.77;;;27.90;43.60;;;;;;4985439;28;20428;-86
2022/06/18 07:22:21;;;;;;;4.20;2.20;;;28.00;43.60;;;;;;4985345;28;20466;-86
2022/06/18 07:25:05;;;;;;;2.47;2.37;;;28.00;43.60;;;;;;4984844;28;20536;-86
2022/06/18 07:28:14;;;;;;;2.80;2.17;;;28.10;43.60;;;;;;4985617;28;20502;-86
2022/06/18 07:30:48;;;;;;;2.47;2.27;;;28.10;43.50;;;;;;4983738;28;20446;-87
2022/06/18 07:33:35;;;;;;;2.20;2.10;;;28.20;43.60;;;;;;4984128;28;20434;-86
2022/06/18 07:36:04;;;;;;;2.73;2.57;;;28.20;43.50;;;;;;4983754;28;20444;-85
2022/06/18 07:38:36;;;;;;;2.60;2.50;;;28.30;43.40;;;;;;4983934;28;20529;-85
2022/06/18 07:41:06;;;;;;;2.10;2.00;;;28.30;43.30;;;;;;4984333;28;20452;-86
2022/06/18 07:43:42;;;;;;;2.50;2.40;;;28.40;43.40;;;;;;4983856;28;20474;-86
2022/06/18 07:46:33;;;;;;;2.43;2.33;;;28.50;43.40;;;;;;4984934;28;20450;-86
2022/06/18 07:49:07;;;;;;;4.50;2.10;;;28.50;43.30;;;;;;4979309;28;20481;-86
2022/06/18 07:52:14;;;;;;;2.40;2.30;;;28.60;43.30;;;;;;4976840;28;20468;-86
2022/06/18 07:54:54;;;;;;;2.33;2.13;;;28.70;43.20;;;;;;4984398;28;20446;-87
2022/06/18 07:57:24;;;;;;;2.83;2.63;;;28.80;43.10;;;;;;4984750;28;20427;-87
2022/06/18 07:59:52;;;;;;;2.37;2.27;;;28.80;43.10;;;;;;4984846;28;20460;-87
2022/06/18 08:02:20;;;;;;;2.23;2.13;;;28.90;43.00;;;;;;4985467;28;20444;-87
2022/06/18 08:04:48;;;;;;;2.40;2.30;;;29.00;43.00;;;;;;4985478;28;20529;-85
2022/06/18 08:11:12;;;;;;;2.30;2.20;;;29.10;42.70;;;;;;4985041;28;20434;-86
2022/06/18 08:13:57;;;;;;;2.33;2.20;;;29.20;42.70;;;;;;4985068;28;20428;-86
2022/06/18 08:16:44;;;;;;;5.10;2.60;;;29.30;42.70;;;;;;4984354;28;20454;-87
2022/06/18 08:19:45;;;;;;;2.30;2.20;;;29.40;42.60;;;;;;4974730;28;20450;-87
2022/06/18 08:22:16;;;;;;;2.03;1.93;;;29.50;42.60;;;;;;4983121;28;20474;-85
2022/06/18 08:24:44;;;;;;;2.50;2.30;;;29.50;42.50;;;;;;4983758;28;20463;-87
2022/06/18 08:27:14;;;;;;;2.20;2.10;;;29.60;42.40;;;;;;4983721;28;20452;-86
2022/06/18 08:29:43;;;;;;;2.50;2.40;;;29.60;42.40;;;;;;4983496;28;20477;-86
2022/06/18 08:32:14;;;;;;;2.20;2.10;;;29.70;42.30;;;;;;4984850;28;20508;-86
2022/06/18 08:34:43;;;;;;;2.60;2.50;;;29.80;42.20;;;;;;4982713;28;20442;-86
2022/06/18 08:37:12;;;;;;;2.40;2.30;;;29.80;42.20;;;;;;4981352;28;20450;-85
2022/06/18 08:39:40;;;;;;;2.70;2.27;;;29.90;42.20;;;;;;4980371;28;20446;-86
2022/06/18 08:42:21;;;;;;;2.00;1.90;;;30.00;42.10;;;;;;4980673;28;20473;-86
2022/06/18 08:45:09;;;;;;;2.30;2.20;;;30.20;42.10;;;;;;4980341;28;20474;-86
2022/06/18 08:47:46;;;;;;;2.10;2.00;;;30.20;41.90;;;;;;4979600;28;20462;-87
2022/06/18 08:50:29;;;;;;;2.50;2.33;;;30.30;41.90;;;;;;4979671;28;20456;-85
2022/06/18 08:53:15;;;;;;;1.90;1.80;;;30.40;41.90;;;;;;4980703;28;20497;-85
2022/06/18 08:55:49;;;;;;;2.10;2.00;;;30.50;41.80;;;;;;4987828;28;20449;-84
2022/06/18 08:58:44;;;;;;;2.17;2.07;;;30.50;41.60;;;;;;4988851;28;20450;-85
2022/06/18 09:01:34;;;;;;;4.53;2.10;;;30.70;41.40;;;;;;4980822;28;20473;-86
2022/06/18 09:04:20;;;;;;;1.80;1.80;;;30.80;41.40;;;;;;4984009;28;20474;-85
2022/06/18 09:07:26;;;;;;;2.43;2.20;;;30.90;41.30;;;;;;4975755;28;20469;-86
2022/06/18 09:10:02;;;;;;;2.00;1.90;;;31.00;41.10;;;;;;4971402;28;20477;-86
2022/06/18 09:12:32;;;;;;;1.90;1.80;;;31.00;41.00;;;;;;4984525;28;20470;-85
2022/06/18 09:15:04;;;;;;;1.87;1.80;;;31.10;41.00;;;;;;4984128;28;20449;-85
2022/06/18 09:17:39;;;;;;;2.10;2.00;;;31.20;40.90;;;;;;4984564;28;20442;-86
2022/06/18 09:20:13;;;;;;;2.23;1.97;;;31.30;40.80;;;;;;4981034;28;20831;-86
2022/06/18 09:22:46;;;;;;;1.80;1.80;;;31.40;40.80;;;;;;4982265;28;20537;-86
2022/06/18 09:25:14;;;;;;;2.20;2.10;;;31.50;40.70;;;;;;4987111;28;20493;-86
2022/06/18 09:27:45;;;;;;;2.10;2.00;;;31.50;40.60;;;;;;4986015;28;20472;-85
2022/06/18 09:30:18;;;;;;;2.10;2.00;;;31.60;40.40;;;;;;4985100;28;20537;-86
2022/06/18 09:32:56;;;;;;;1.90;1.80;;;31.70;40.30;;;;;;4985976;28;20497;-86
2022/06/18 09:35:28;;;;;;;2.17;2.07;;;31.80;40.20;;;;;;4984268;28;20450;-85
2022/06/18 09:37:59;;;;;;;2.37;2.17;;;31.80;40.10;;;;;;4985380;28;20877;-85
2022/06/18 09:40:31;;;;;;;2.40;2.30;;;31.90;40.00;;;;;;4985141;28;20446;-86
2022/06/18 09:43:04;;;;;;;1.73;1.73;;;32.10;39.90;;;;;;4985231;28;20474;-86
2022/06/18 09:45:37;;;;;;;2.10;2.00;;;32.10;39.80;;;;;;4984719;28;20512;-85
2022/06/18 09:48:09;;;;;;;2.27;2.17;;;32.20;39.70;;;;;;4984212;28;20450;-86
2022/06/18 09:50:42;;;;;;;2.30;2.13;;;32.30;39.60;;;;;;4979344;28;20477;-87
2022/06/18 09:53:14;;;;;;;2.10;2.00;;;32.40;39.60;;;;;;4979156;28;20461;-86
2022/06/18 09:55:45;;;;;;;1.97;1.97;;;32.50;39.40;;;;;;4978248;28;20969;-86
2022/06/18 09:58:14;;;;;;;1.90;1.90;;;32.50;39.40;;;;;;4977267;28;20454;-87
2022/06/18 10:00:44;;;;;;;1.80;1.80;;;32.70;39.30;;;;;;4977557;28;20534;-86
2022/06/18 10:03:14;;;;;;;2.40;2.00;;;32.70;39.10;;;;;;4977043;28;20489;-87
2022/06/18 10:08:32;;;;;;;1.70;1.70;;;32.90;39.00;;;;;;4977415;28;20430;-87
2022/06/18 10:11:07;;;;;;;1.93;1.93;;;32.90;38.80;;;;;;4976759;28;20498;-87
2022/06/18 10:13:38;;;;;;;1.90;1.80;;;33.10;38.90;;;;;;4976375;28;20449;-87
2022/06/18 10:16:11;;;;;;;2.10;2.10;;;33.10;38.70;;;;;;4976631;28;20527;-87
2022/06/18 10:18:44;;;;;;;1.80;1.80;;;33.20;38.60;;;;;;4977324;28;20450;-87
2022/06/18 10:21:17;;;;;;;2.00;1.90;;;33.30;38.40;;;;;;4977262;28;20473;-87
2022/06/18 10:23:51;;;;;;;2.20;2.10;;;33.30;38.30;;;;;;4976847;28;20484;-87
2022/06/18 10:26:24;;;;;;;1.90;1.90;;;33.40;38.20;;;;;;4977078;28;20541;-88
2022/06/18 10:28:57;;;;;;;1.90;1.90;;;33.50;38.00;;;;;;4976727;28;20484;-86
2022/06/18 10:31:32;;;;;;;2.50;2.30;;;33.50;38.00;;;;;;4976371;28;20553;-87
2022/06/18 10:34:09;;;;;;;1.87;1.87;;;33.60;37.90;;;;;;4976652;28;20445;-87
2022/06/18 10:36:39;;;;;;;1.90;1.90;;;33.70;37.70;;;;;;4976545;28;20489;-87
2022/06/18 10:39:12;;;;;;;2.00;1.90;;;33.70;37.40;;;;;;4976389;28;20510;-86
2022/06/18 10:41:47;;;;;;;2.10;2.00;;;33.80;37.60;;;;;;4975899;28;20502;-86
2022/06/18 10:44:23;;;;;;;1.93;1.83;;;33.80;37.60;;;;;;4976189;28;20508;-87
2022/06/18 10:47:01;;;;;;;1.77;1.77;;;33.90;37.40;;;;;;4968492;28;20449;-87
2022/06/18 10:49:31;;;;;;;1.73;1.73;;;34.00;37.00;;;;;;4976219;28;20442;-87
2022/06/18 10:52:00;;;;;;;1.67;1.67;;;34.00;37.00;;;;;;4976095;28;20470;-87
2022/06/18 10:54:29;;;;;;;1.57;1.57;;;34.00;37.00;;;;;;4975897;28;20522;-87
2022/06/18 10:56:57;;;;;;;1.63;1.63;;;34.10;37.00;;;;;;4976222;28;20450;-89
2022/06/18 10:59:30;;;;;;;1.70;1.70;;;34.10;36.70;;;;;;4975881;28;20450;-87
2022/06/18 11:02:16;;;;;;;1.93;1.93;;;34.10;36.80;;;;;;4976136;28;20500;-87
2022/06/18 11:04:53;;;;;;;2.60;2.10;;;34.20;37.00;;;;;;4975683;28;20873;-86
2022/06/18 11:07:22;;;;;;;1.90;1.90;;;34.30;36.90;;;;;;4975984;28;20450;-88
2022/06/18 11:09:56;;;;;;;1.60;1.60;;;34.40;36.80;;;;;;4975586;28;20452;-85
2022/06/18 11:12:27;;;;;;;1.73;1.73;;;34.50;36.50;;;;;;4975657;28;20517;-88
2022/06/18 11:14:55;;;;;;;2.10;2.00;;;34.50;36.30;;;;;;4975919;28;20446;-87
2022/06/18 11:17:28;;;;;;;2.10;1.97;;;34.50;36.30;;;;;;4976049;28;20513;-88
2022/06/18 11:20:07;;;;;;;1.70;1.70;;;34.60;36.20;;;;;;4975288;28;20474;-86
2022/06/18 11:22:35;;;;;;;2.10;2.00;;;34.60;36.10;;;;;;4975476;28;20513;-88
2022/06/18 11:25:05;;;;;;;1.77;1.77;;;34.50;36.10;;;;;;4975205;28;20564;-88
2022/06/18 11:27:35;;;;;;;1.70;1.70;;;34.50;36.40;;;;;;4974796;28;20477;-87
2022/06/18 11:30:07;;;;;;;1.97;1.87;;;34.60;36.20;;;;;;4975116;28;20537;-88
2022/06/18 11:32:38;;;;;;;2.10;2.00;;;34.70;36.30;;;;;;4974826;28;20466;-87
2022/06/18 11:35:10;;;;;;;1.90;1.90;;;34.70;36.10;;;;;;4975096;28;20530;-88
2022/06/18 11:37:38;;;;;;;1.73;1.73;;;34.60;36.00;;;;;;4974969;28;20529;-88
2022/06/18 11:40:18;;;;;;;1.80;1.80;;;34.60;36.10;;;;;;4974755;28;21016;-87
2022/06/18 11:42:49;;;;;;;1.60;1.50;;;34.60;36.00;;;;;;4975211;28;20533;-87
2022/06/18 11:45:24;;;;;;;1.90;1.90;;;34.60;36.00;;;;;;4974804;28;20469;-88
2022/06/18 11:47:56;;;;;;;1.97;1.97;;;34.70;36.20;;;;;;4973934;28;20459;-87
2022/06/18 11:50:26;;;;;;;1.70;1.70;;;34.80;36.10;;;;;;4974767;28;20538;-87
2022/06/18 11:52:57;;;;;;;2.20;1.60;;;34.90;35.90;;;;;;4974167;28;20469;-87
2022/06/18 11:55:28;;;;;;;1.77;1.70;;;35.00;35.80;;;;;;4974260;28;20533;-89
2022/06/18 11:58:01;;;;;;;1.60;1.60;;;35.10;35.60;;;;;;4974233;28;20541;-87
2022/06/18 12:00:34;;;;;;;1.40;1.40;;;35.20;35.60;;;;;;4974447;28;20446;-87
2022/06/18 12:03:12;;;;;;;1.80;1.70;;;35.20;35.40;;;;;;4974237;28;20494;-87
2022/06/18 12:05:47;;;;;;;1.50;1.50;;;35.30;35.30;;;;;;4974222;28;20525;-87
2022/06/18 12:08:18;;;;;;;2.10;2.00;;;35.40;35.40;;;;;;4973984;28;20450;-87
2022/06/18 12:10:48;;;;;;;1.60;1.60;;;35.50;35.30;;;;;;4974423;28;20477;-87
2022/06/18 12:13:23;;;;;;;1.40;1.40;;;35.50;35.10;;;;;;4974408;28;20489;-87
2022/06/18 12:15:58;;;;;;;1.80;1.70;;;35.50;35.20;;;;;;4966696;28;20525;-87
2022/06/18 12:18:31;;;;;;;1.53;1.53;;;35.60;35.00;;;;;;4974159;28;20454;-85
2022/06/18 12:21:18;;;;;;;1.67;1.67;;;35.50;34.80;;;;;;4974191;28;20454;-87
2022/06/18 12:23:52;;;;;;;1.53;1.53;;;35.60;34.90;;;;;;4974444;28;20456;-86
2022/06/18 12:26:21;;;;;;;1.60;1.60;;;35.70;34.90;;;;;;4974172;28;20478;-85
2022/06/18 12:28:57;;;;;;;1.77;1.60;;;35.70;34.70;;;;;;4974884;28;20489;-85
2022/06/18 12:31:27;;;;;;;1.60;1.60;;;35.70;34.80;;;;;;4974520;28;20548;-86
2022/06/18 12:34:00;;;;;;;1.80;1.70;;;35.60;34.90;;;;;;4973905;28;20456;-86
2022/06/18 12:36:30;;;;;;;2.20;2.10;;;35.60;35.20;;;;;;4973989;28;20538;-86
2022/06/18 12:39:02;;;;;;;1.73;1.73;;;35.50;35.10;;;;;;4974221;28;20454;-87
2022/06/18 12:41:39;;;;;;;1.87;1.77;;;35.60;35.10;;;;;;4974134;28;20520;-87
2022/06/18 12:44:22;;;;;;;1.90;1.90;;;35.50;35.10;;;;;;4974826;28;20513;-87
2022/06/18 12:46:53;;;;;;;1.83;1.83;;;35.50;35.00;;;;;;4974632;28;20478;-87
2022/06/18 12:49:26;;;;;;;1.70;1.60;;;35.40;35.10;;;;;;4975103;28;20591;-87
2022/06/18 12:51:57;;;;;;;1.40;1.40;;;35.40;35.30;;;;;;4974540;28;21023;-87
2022/06/18 12:54:36;;;;;;;1.80;1.70;;;35.30;35.10;;;;;;4975211;28;20449;-86
2022/06/18 12:57:11;;;;;;;1.97;1.87;;;35.20;35.20;;;;;;4974739;28;20446;-88
2022/06/18 12:59:41;;;;;;;1.67;1.57;;;35.10;35.20;;;;;;4980162;28;20453;-86
2022/06/18 13:02:12;;;;;;;1.73;1.63;;;35.00;35.30;;;;;;4981098;28;20516;-87
2022/06/18 13:05:03;;;;;;;1.80;1.80;;;35.00;35.40;;;;;;4978693;28;20465;-87
2022/06/18 13:07:47;;;;;;;1.60;1.60;;;35.00;35.30;;;;;;4979860;28;20437;-86
2022/06/18 13:10:18;;;;;;;1.67;1.67;;;34.80;35.50;;;;;;4982568;28;20517;-87
2022/06/18 13:12:53;;;;;;;1.87;1.77;;;34.70;35.60;;;;;;4990619;28;20485;-88
2022/06/18 13:15:28;;;;;;;1.60;1.60;;;34.70;35.60;;;;;;4986451;28;20452;-88
2022/06/18 13:17:58;;;;;;;2.07;1.97;;;34.70;35.70;;;;;;4986612;28;20446;-86
2022/06/18 13:20:30;;;;;;;1.77;1.77;;;34.70;35.80;;;;;;4977275;28;20446;-86
2022/06/18 13:22:58;;;;;;;1.77;1.77;;;34.70;35.70;;;;;;4985725;28;20473;-85
2022/06/18 13:28:16;;;;;;;2.50;1.80;;;34.80;35.80;;;;;;4997246;28;20458;-88
2022/06/18 13:30:57;;;;;;;1.73;1.73;;;34.80;36.40;;;;;;4976721;28;20537;-88
2022/06/18 13:33:33;;;;;;;1.70;1.60;;;34.90;35.60;;;;;;4976957;28;20448;-87
2022/06/18 13:36:14;;;;;;;1.70;1.60;;;34.90;35.80;;;;;;4976351;28;20459;-86
2022/06/18 13:38:44;;;;;;;1.83;1.73;;;34.90;35.70;;;;;;4976387;28;20441;-87